createdAt,value
2018-03-15T00:01:12.565Z,98663
2018-03-15T00:03:41.388Z,98658
2018-03-15T00:06:09.421Z,98665
2018-03-15T00:08:37.472Z,98660
2018-03-15T00:11:05.552Z,98659
2018-03-15T00:13:33.592Z,98658
2018-03-15T00:16:02.445Z,98661
2018-03-15T00:18:30.505Z,98654
2018-03-15T00:20:58.539Z,98658
2018-03-15T00:23:26.596Z,98654
2018-03-15T00:25:54.639Z,98660
2018-03-15T00:28:23.457Z,98665
2018-03-15T00:30:51.521Z,98661
2018-03-15T00:33:20.321Z,98661
2018-03-15T00:35:49.165Z,98662
2018-03-15T00:38:17.205Z,98659
2018-03-15T00:40:46.013Z,98661
2018-03-15T00:43:14.844Z,98661
2018-03-15T00:45:42.886Z,98662
2018-03-15T00:48:10.954Z,98657
2018-03-15T00:50:38.989Z,98657
2018-03-15T00:53:07.073Z,98662
2018-03-15T00:55:35.137Z,98663
2018-03-15T00:58:03.941Z,98650
2018-03-15T01:00:32.763Z,98650
2018-03-15T01:03:00.844Z,98649
2018-03-15T01:05:28.900Z,98651
2018-03-15T01:07:57.709Z,98645
2018-03-15T01:10:26.536Z,98643
2018-03-15T01:12:54.616Z,98634
2018-03-15T01:15:22.668Z,98642
2018-03-15T01:17:51.506Z,98630
2018-03-15T01:20:19.545Z,98637
2018-03-15T01:22:47.608Z,98637
2018-03-15T01:25:15.648Z,98648
2018-03-15T01:27:43.685Z,98649
2018-03-15T01:30:11.744Z,98639
2018-03-15T01:32:39.785Z,98628
2018-03-15T01:35:08.613Z,98620
2018-03-15T01:37:36.654Z,98614
2018-03-15T01:40:05.476Z,98615
2018-03-15T01:42:34.296Z,98604
2018-03-15T01:45:02.391Z,98607
2018-03-15T01:47:30.446Z,98601
2018-03-15T01:49:59.253Z,98603
2018-03-15T01:52:28.077Z,98597
2018-03-15T01:54:56.118Z,98590
2018-03-15T01:57:25.096Z,98599
2018-03-15T01:59:53.137Z,98596
2018-03-15T02:02:21.177Z,98585
2018-03-15T02:04:49.246Z,98571
2018-03-15T02:07:17.293Z,98569
2018-03-15T02:09:45.337Z,98562
2018-03-15T02:12:13.393Z,98558
2018-03-15T02:14:41.429Z,98544
2018-03-15T02:17:10.249Z,98540
2018-03-15T02:19:38.308Z,98537
2018-03-15T02:22:07.108Z,98532
2018-03-15T02:24:35.928Z,98534
2018-03-15T02:27:04.747Z,98535
2018-03-15T02:29:32.792Z,98530
2018-03-15T02:32:01.622Z,98519
2018-03-15T02:34:29.684Z,98519
2018-03-15T02:36:57.713Z,98524
2018-03-15T02:39:25.770Z,98527
2018-03-15T02:41:54.578Z,98526
2018-03-15T02:44:22.623Z,98527
2018-03-15T02:46:51.449Z,98522
2018-03-15T02:49:20.252Z,98521
2018-03-15T02:51:49.074Z,98530
2018-03-15T02:54:17.225Z,98527
2018-03-15T02:56:45.275Z,98523
2018-03-15T02:59:13.322Z,98519
2018-03-15T03:01:41.381Z,98516
2018-03-15T03:04:10.189Z,98512
2018-03-15T03:06:39.013Z,98502
2018-03-15T03:09:07.071Z,98496
2018-03-15T03:11:35.884Z,98500
2018-03-15T03:14:04.701Z,98506
2018-03-15T03:16:32.737Z,98501
2018-03-15T03:19:00.816Z,98504
2018-03-15T03:21:28.866Z,98490
2018-03-15T03:23:56.909Z,98492
2018-03-15T03:26:24.965Z,98491
2018-03-15T03:28:53.001Z,98491
2018-03-15T03:31:21.053Z,98487
2018-03-15T03:33:49.102Z,98480
2018-03-15T03:36:17.153Z,98468
2018-03-15T03:38:45.256Z,98466
2018-03-15T03:41:13.319Z,98458
2018-03-15T03:43:42.120Z,98452
2018-03-15T03:46:10.227Z,98451
2018-03-15T03:48:38.257Z,98442
2018-03-15T03:51:07.113Z,98446
2018-03-15T03:53:35.153Z,98442
2018-03-15T03:56:03.205Z,98430
2018-03-15T03:58:31.247Z,98427
2018-03-15T04:00:59.326Z,98416
2018-03-15T04:03:28.113Z,98418
2018-03-15T04:05:56.924Z,98417
2018-03-15T04:08:25.737Z,98415
2018-03-15T04:10:54.540Z,98412
2018-03-15T04:13:22.596Z,98409
2018-03-15T04:15:51.409Z,98408
2018-03-15T04:18:20.273Z,98405
2018-03-15T04:20:49.088Z,98422
2018-03-15T04:23:17.129Z,98417
2018-03-15T04:25:45.218Z,98420
2018-03-15T04:28:13.257Z,98428
2018-03-15T04:30:41.317Z,98416
2018-03-15T04:33:09.361Z,98406
2018-03-15T04:35:37.428Z,98398
2018-03-15T04:38:06.226Z,98398
2018-03-15T04:40:35.053Z,98393
2018-03-15T04:43:03.089Z,98393
2018-03-15T04:45:31.217Z,98392
2018-03-15T04:47:59.279Z,98389
2018-03-15T04:50:28.101Z,98401
2018-03-15T04:52:56.160Z,98401
2018-03-15T04:55:24.974Z,98403
2018-03-15T04:57:53.793Z,98398
2018-03-15T05:00:21.878Z,98394
2018-03-15T05:02:49.930Z,98390
2018-03-15T05:05:17.991Z,98388
2018-03-15T05:07:46.029Z,98374
2018-03-15T05:10:14.093Z,98371
2018-03-15T05:12:42.902Z,98360
2018-03-15T05:15:11.721Z,98339
2018-03-15T05:17:39.761Z,98330
2018-03-15T05:20:07.811Z,98318
2018-03-15T05:22:35.852Z,98309
2018-03-15T05:25:04.668Z,98303
2018-03-15T05:27:32.704Z,98305
2018-03-15T05:30:00.841Z,98306
2018-03-15T05:32:28.880Z,98316
2018-03-15T05:34:56.945Z,98321
2018-03-15T05:37:24.981Z,98324
2018-03-15T05:39:53.020Z,98319
2018-03-15T05:42:21.081Z,98307
2018-03-15T05:44:49.153Z,98306
2018-03-15T05:47:17.938Z,98297
2018-03-15T05:49:45.991Z,98292
2018-03-15T05:52:14.052Z,98288
2018-03-15T05:54:42.089Z,98275
2018-03-15T05:57:10.165Z,98267
2018-03-15T05:59:38.972Z,98263
2018-03-15T06:02:07.014Z,98277
2018-03-15T06:04:35.154Z,98291
2018-03-15T06:07:03.238Z,98308
2018-03-15T06:09:31.293Z,98322
2018-03-15T06:12:00.101Z,98335
2018-03-15T06:14:29.024Z,98336
2018-03-15T06:16:57.112Z,98333
2018-03-15T06:19:25.153Z,98326
2018-03-15T06:21:53.210Z,98323
2018-03-15T06:24:21.269Z,98316
2018-03-15T06:26:49.325Z,98317
2018-03-15T06:29:18.133Z,98308
2018-03-15T06:31:46.949Z,98300
2018-03-15T06:34:14.990Z,98298
2018-03-15T06:36:43.045Z,98295
2018-03-15T06:39:11.084Z,98294
2018-03-15T06:41:39.913Z,98291
2018-03-15T06:44:07.961Z,98290
2018-03-15T06:46:36.365Z,98285
2018-03-15T06:49:05.186Z,98277
2018-03-15T06:51:33.232Z,98272
2018-03-15T06:54:01.352Z,98260
2018-03-15T06:56:29.390Z,98258
2018-03-15T06:58:57.461Z,98256
2018-03-15T07:01:25.485Z,98255
2018-03-15T07:03:54.309Z,98252
2018-03-15T07:06:22.349Z,98257
2018-03-15T07:08:50.404Z,98250
2018-03-15T07:11:18.440Z,98255
2018-03-15T07:13:47.261Z,98245
2018-03-15T07:16:15.297Z,98232
2018-03-15T07:18:43.352Z,98232
2018-03-15T07:21:11.405Z,98226
2018-03-15T07:23:39.451Z,98217
2018-03-15T07:26:07.505Z,98221
2018-03-15T07:28:35.544Z,98227
2018-03-15T07:31:04.365Z,98221
2018-03-15T07:33:32.416Z,98233
2018-03-15T07:36:00.471Z,98237
2018-03-15T07:38:28.509Z,98231
2018-03-15T07:40:57.325Z,98233
2018-03-15T07:43:25.373Z,98227
2018-03-15T07:45:53.425Z,98217
2018-03-15T07:48:21.470Z,98205
2018-03-15T07:50:49.522Z,98201
2018-03-15T07:53:17.558Z,98191
2018-03-15T07:55:45.621Z,98193
2018-03-15T07:58:13.663Z,98183
2018-03-15T08:00:41.708Z,98191
2018-03-15T08:03:09.745Z,98183
2018-03-15T08:05:37.802Z,98189
2018-03-15T08:08:05.837Z,98190
2018-03-15T08:10:33.896Z,98186
2018-03-15T08:13:01.949Z,98187
2018-03-15T08:15:29.985Z,98180
2018-03-15T08:17:58.806Z,98173
2018-03-15T08:20:26.839Z,98171
2018-03-15T08:22:54.913Z,98177
2018-03-15T08:25:22.949Z,98174
2018-03-15T08:27:50.989Z,98174
2018-03-15T08:30:19.048Z,98169
2018-03-15T08:32:47.080Z,98157
2018-03-15T08:35:15.908Z,98169
2018-03-15T08:37:43.945Z,98155
2018-03-15T08:40:12.003Z,98151
2018-03-15T08:42:40.057Z,98154
2018-03-15T08:45:08.096Z,98151
2018-03-15T08:47:36.149Z,98141
2018-03-15T08:50:04.185Z,98135
2018-03-15T08:52:33.000Z,98126
2018-03-15T08:55:01.060Z,98136
2018-03-15T08:57:29.105Z,98143
2018-03-15T08:59:57.161Z,98139
2018-03-15T09:02:25.258Z,98131
2018-03-15T09:04:53.367Z,98136
2018-03-15T09:07:22.110Z,98137
2018-03-15T09:09:50.933Z,98132
2018-03-15T09:12:18.964Z,98134
2018-03-15T09:14:47.020Z,98128
2018-03-15T09:17:15.081Z,98120
2018-03-15T09:19:43.897Z,98123
2018-03-15T09:22:11.948Z,98125
2018-03-15T09:24:40.761Z,98122
2018-03-15T09:27:09.585Z,98111
2018-03-15T09:29:37.632Z,98097
2018-03-15T09:32:06.465Z,98095
2018-03-15T09:34:34.556Z,98101
2018-03-15T09:37:02.577Z,98100
2018-03-15T09:39:30.620Z,98101
2018-03-15T09:41:58.691Z,98093
2018-03-15T09:44:27.501Z,98080
2018-03-15T09:46:55.546Z,98074
2018-03-15T09:49:23.613Z,98068
2018-03-15T09:51:51.665Z,98061
2018-03-15T09:54:19.742Z,98060
2018-03-15T09:56:47.785Z,98051
2018-03-15T09:59:15.848Z,98043
2018-03-15T10:01:43.921Z,98037
2018-03-15T10:04:11.981Z,98029
2018-03-15T10:06:40.028Z,98006
2018-03-15T10:09:08.101Z,98021
2018-03-15T10:11:36.151Z,98028
2018-03-15T10:14:04.228Z,98039
2018-03-15T10:16:32.284Z,98025
2018-03-15T10:19:01.129Z,98023
2018-03-15T10:21:29.173Z,98022
2018-03-15T10:23:57.997Z,98024
2018-03-15T10:26:26.059Z,98014
2018-03-15T10:28:54.109Z,98012
2018-03-15T10:31:22.945Z,98011
2018-03-15T10:33:51.758Z,98005
2018-03-15T10:36:19.828Z,98001
2018-03-15T10:38:48.641Z,97993
2018-03-15T10:41:16.705Z,97986
2018-03-15T10:43:45.553Z,97981
2018-03-15T10:46:13.595Z,97983
2018-03-15T10:48:42.413Z,97987
2018-03-15T10:51:10.481Z,97990
2018-03-15T10:53:39.296Z,97990
2018-03-15T10:56:07.348Z,97989
2018-03-15T10:58:35.408Z,97989
2018-03-15T11:01:06.832Z,97989
2018-03-15T11:03:40.453Z,97995
2018-03-15T11:06:10.333Z,97985
2018-03-15T11:08:38.381Z,97989
2018-03-15T11:11:06.440Z,97993
2018-03-15T11:13:34.539Z,98004
2018-03-15T11:16:02.557Z,98007
2018-03-15T11:18:30.613Z,98005
2018-03-15T11:20:58.689Z,98005
2018-03-15T11:23:26.773Z,98002
2018-03-15T11:25:54.813Z,98002
2018-03-15T11:28:22.877Z,98003
2018-03-15T11:30:50.933Z,98005
2018-03-15T11:33:18.993Z,98002
2018-03-15T11:35:47.824Z,98005
2018-03-15T11:38:15.873Z,97993
2018-03-15T11:40:44.685Z,97995
2018-03-15T11:43:13.513Z,97986
2018-03-15T11:45:41.565Z,97988
2018-03-15T11:48:10.389Z,97987
2018-03-15T11:50:38.477Z,97980
2018-03-15T11:53:06.491Z,97969
2018-03-15T11:55:34.553Z,97966
2018-03-15T11:58:02.601Z,97958
2018-03-15T12:00:31.440Z,97956
2018-03-15T12:02:59.495Z,97954
2018-03-15T12:05:28.313Z,97942
2018-03-15T12:07:56.365Z,97934
2018-03-15T12:10:25.185Z,97917
2018-03-15T12:12:53.250Z,97917
2018-03-15T12:15:21.294Z,97914
2018-03-15T12:17:49.370Z,97910
2018-03-15T12:20:17.417Z,97893
2018-03-15T12:22:46.244Z,97882
2018-03-15T12:25:14.310Z,97878
2018-03-15T12:27:43.137Z,97870
2018-03-15T12:30:11.181Z,97864
2018-03-15T12:32:40.021Z,97851
2018-03-15T12:35:08.074Z,97850
2018-03-15T12:37:36.897Z,97830
2018-03-15T12:40:04.945Z,97831
2018-03-15T12:42:33.052Z,97817
2018-03-15T12:45:01.045Z,97803
2018-03-15T12:47:29.110Z,97803
2018-03-15T12:49:57.913Z,97802
2018-03-15T12:52:26.740Z,97794
2018-03-15T12:54:54.784Z,97792
2018-03-15T12:57:22.932Z,97779
2018-03-15T12:59:50.897Z,97777
2018-03-15T13:02:18.961Z,97779
2018-03-15T13:04:47.773Z,97777
2018-03-15T13:07:15.837Z,97775
2018-03-15T13:09:44.648Z,97782
2018-03-15T13:12:13.497Z,97771
2018-03-15T13:14:41.542Z,97772
2018-03-15T13:17:09.595Z,97764
2018-03-15T13:19:37.664Z,97763
2018-03-15T13:22:05.712Z,97749
2018-03-15T13:24:33.786Z,97747
2018-03-15T13:27:01.883Z,97746
2018-03-15T13:29:29.882Z,97733
2018-03-15T13:31:57.949Z,97730
2018-03-15T13:34:26.013Z,97734
2018-03-15T13:36:54.833Z,97739
2018-03-15T13:39:22.872Z,97736
2018-03-15T13:41:50.941Z,97728
2018-03-15T13:44:18.994Z,97726
2018-03-15T13:46:47.052Z,97726
2018-03-15T13:49:15.873Z,97719
2018-03-15T13:51:43.941Z,97713
2018-03-15T13:54:11.981Z,97717
2018-03-15T13:56:40.081Z,97712
2018-03-15T13:59:08.124Z,97696
2018-03-15T14:01:36.168Z,97695
2018-03-15T14:04:05.008Z,97686
2018-03-15T14:06:33.052Z,97681
2018-03-15T14:09:01.886Z,97670
2018-03-15T14:11:29.944Z,97665
2018-03-15T14:13:58.752Z,97653
2018-03-15T14:16:26.821Z,97659
2018-03-15T14:18:55.640Z,97660
2018-03-15T14:21:24.445Z,97663
2018-03-15T14:23:52.509Z,97653
2018-03-15T14:26:21.370Z,97650
2018-03-15T14:28:49.414Z,97656
2018-03-15T14:31:17.481Z,97670
2018-03-15T14:33:46.309Z,97664
2018-03-15T14:36:14.358Z,97666
2018-03-15T14:38:42.601Z,97664
2018-03-15T14:41:10.669Z,97667
2018-03-15T14:43:38.725Z,97680
2018-03-15T14:46:07.557Z,97680
2018-03-15T14:48:35.613Z,97683
2018-03-15T14:51:04.448Z,97688
2018-03-15T14:53:32.493Z,97694
2018-03-15T14:56:01.313Z,97708
2018-03-15T14:58:29.373Z,97716
2018-03-15T15:00:57.453Z,97712
2018-03-15T15:03:25.501Z,97717
2018-03-15T15:05:53.570Z,97710
2018-03-15T15:08:21.623Z,97714
2018-03-15T15:10:50.444Z,97716
2018-03-15T15:13:18.512Z,97718
2018-03-15T15:15:47.346Z,97716
2018-03-15T15:18:15.455Z,97722
2018-03-15T15:20:44.228Z,97723
2018-03-15T15:23:12.291Z,97714
2018-03-15T15:25:41.104Z,97707
2018-03-15T15:28:09.173Z,97710
2018-03-15T15:30:37.991Z,97705
2018-03-15T15:33:06.052Z,97705
2018-03-15T15:35:34.865Z,97702
2018-03-15T15:38:03.696Z,97701
2018-03-15T15:40:31.886Z,97697
2018-03-15T15:42:59.925Z,97695
2018-03-15T15:45:28.045Z,97685
2018-03-15T15:47:56.093Z,97681
2018-03-15T15:50:25.030Z,97693
2018-03-15T15:52:53.078Z,97692
2018-03-15T15:55:21.145Z,97684
2018-03-15T15:57:49.185Z,97680
2018-03-15T16:00:17.264Z,97671
2018-03-15T16:02:45.305Z,97663
2018-03-15T16:05:13.377Z,97667
2018-03-15T16:07:41.421Z,97667
2018-03-15T16:10:09.492Z,97682
2018-03-15T16:12:37.615Z,97683
2018-03-15T16:15:06.368Z,97695
2018-03-15T16:17:35.198Z,97703
2018-03-15T16:20:03.261Z,97716
2018-03-15T16:22:32.093Z,97739
2018-03-15T16:25:00.145Z,97748
2018-03-15T16:27:28.961Z,97766
2018-03-15T16:29:57.033Z,97765
2018-03-15T16:32:25.877Z,97773
2018-03-15T16:34:53.930Z,97776
2018-03-15T16:37:21.984Z,97779
2018-03-15T16:39:50.053Z,97780
2018-03-15T16:42:18.869Z,97775
2018-03-15T16:44:46.926Z,97776
2018-03-15T16:47:14.985Z,97779
2018-03-15T16:49:43.037Z,97793
2018-03-15T16:52:11.865Z,97793
2018-03-15T16:54:39.916Z,97787
2018-03-15T16:57:08.750Z,97788
2018-03-15T16:59:36.824Z,97792
2018-03-15T17:02:04.870Z,97788
2018-03-15T17:04:32.936Z,97790
2018-03-15T17:07:00.980Z,97799
2018-03-15T17:09:29.053Z,97811
2018-03-15T17:11:57.874Z,97819
2018-03-15T17:14:25.985Z,97828
2018-03-15T17:16:54.744Z,97828
2018-03-15T17:19:23.573Z,97833
2018-03-15T17:21:51.636Z,97836
2018-03-15T17:24:19.689Z,97829
2018-03-15T17:26:48.537Z,97819
2018-03-15T17:29:16.613Z,97817
2018-03-15T17:31:44.656Z,97821
2018-03-15T17:34:12.716Z,97823
2018-03-15T17:36:40.773Z,97816
2018-03-15T17:39:08.833Z,97824
2018-03-15T17:41:37.664Z,97828
2018-03-15T17:44:05.717Z,97825
2018-03-15T17:46:34.665Z,97824
2018-03-15T17:49:02.725Z,97816
2018-03-15T17:51:30.780Z,97800
2018-03-15T17:53:58.829Z,97780
2018-03-15T17:56:26.890Z,97780
2018-03-15T17:58:54.949Z,97778
2018-03-15T18:01:23.762Z,97771
2018-03-15T18:03:51.824Z,97772
2018-03-15T18:06:19.861Z,97778
2018-03-15T18:08:47.922Z,97786
2018-03-15T18:11:15.976Z,97782
2018-03-15T18:13:44.785Z,97786
2018-03-15T18:16:13.604Z,97798
2018-03-15T18:18:41.640Z,97818
2018-03-15T18:21:09.766Z,97827
2018-03-15T18:23:37.736Z,97846
2018-03-15T18:26:06.566Z,97861
2018-03-15T18:28:34.708Z,97869
2018-03-15T18:31:04.365Z,97880
2018-03-15T18:33:32.406Z,97880
2018-03-15T18:36:00.460Z,97886
2018-03-15T18:38:28.505Z,97889
2018-03-15T18:40:57.328Z,97890
2018-03-15T18:43:25.369Z,97892
2018-03-15T18:45:54.945Z,97889
2018-03-15T18:48:22.992Z,97894
2018-03-15T18:50:51.797Z,97893
2018-03-15T18:53:20.617Z,97891
2018-03-15T18:55:48.682Z,97895
2018-03-15T18:58:17.482Z,97894
2018-03-15T19:00:46.301Z,97902
2018-03-15T19:03:14.345Z,97901
2018-03-15T19:05:42.398Z,97894
2018-03-15T19:08:10.440Z,97891
2018-03-15T19:10:39.262Z,97890
2018-03-15T19:13:07.318Z,97879
2018-03-15T19:15:35.367Z,97880
2018-03-15T19:18:03.422Z,97870
2018-03-15T19:20:31.465Z,97876
2018-03-15T19:23:00.284Z,97879
2018-03-15T19:25:29.101Z,97877
2018-03-15T19:27:57.169Z,97874
2018-03-15T19:30:25.986Z,97881
2018-03-15T19:32:54.029Z,97870
2018-03-15T19:35:22.847Z,97883
2018-03-15T19:37:51.693Z,97880
2018-03-15T19:40:20.493Z,97883
2018-03-15T19:42:48.534Z,97885
2018-03-15T19:45:16.569Z,97893
2018-03-15T19:47:44.627Z,97885
2018-03-15T19:50:12.699Z,97888
2018-03-15T19:52:41.500Z,97892
2018-03-15T19:55:10.310Z,97902
2018-03-15T19:57:38.361Z,97906
2018-03-15T20:00:06.425Z,97903
2018-03-15T20:02:34.470Z,97913
2018-03-15T20:05:02.513Z,97918
2018-03-15T20:07:32.129Z,97925
2018-03-15T20:10:00.148Z,97942
2018-03-15T20:12:28.202Z,97964
2018-03-15T20:14:56.249Z,97969
2018-03-15T20:17:24.317Z,97954
2018-03-15T20:19:52.361Z,97952
2018-03-15T20:22:26.116Z,97955
2018-03-15T20:24:54.169Z,97970
2018-03-15T20:30:33.274Z,97975
2018-03-15T20:33:06.889Z,97972
2018-03-15T20:35:34.945Z,97977
2018-03-15T20:38:03.749Z,97982
2018-03-15T20:40:38.040Z,97981
2018-03-15T20:43:06.098Z,97984
2018-03-15T20:45:39.606Z,97985
2018-03-15T20:48:13.234Z,97983
2018-03-15T20:50:41.274Z,97980
2018-03-15T20:53:10.073Z,97978
2018-03-15T20:55:38.897Z,97976
2018-03-15T20:58:06.933Z,97978
2018-03-15T21:00:34.990Z,97981
2018-03-15T21:03:03.029Z,97989
2018-03-15T21:05:31.856Z,97996
2018-03-15T21:07:59.889Z,98015
2018-03-15T21:10:27.952Z,98020
2018-03-15T21:12:55.988Z,98020
2018-03-15T21:15:24.800Z,98023
2018-03-15T21:17:52.865Z,98032
2018-03-15T21:20:21.676Z,98032
2018-03-15T21:22:50.497Z,98040
2018-03-15T21:25:18.554Z,98054
2018-03-15T21:27:47.381Z,98069
2018-03-15T21:30:15.469Z,98065
2018-03-15T21:32:43.525Z,98069
2018-03-15T21:35:12.336Z,98070
2018-03-15T21:37:41.157Z,98070
2018-03-15T21:40:09.193Z,98077
2018-03-15T21:42:37.260Z,98074
2018-03-15T21:45:05.300Z,98076
2018-03-15T21:47:33.349Z,98079
2018-03-15T21:50:02.175Z,98083
2018-03-15T21:52:30.988Z,98095
2018-03-15T21:54:59.800Z,98092
2018-03-15T21:57:27.853Z,98093
2018-03-15T21:59:56.684Z,98103
2018-03-15T22:02:24.724Z,98105
2018-03-15T22:04:52.791Z,98108
2018-03-15T22:07:20.818Z,98112
2018-03-15T22:09:49.644Z,98112
2018-03-15T22:12:18.469Z,98116
2018-03-15T22:14:46.533Z,98122
2018-03-15T22:17:14.576Z,98130
2018-03-15T22:19:43.417Z,98143
2018-03-15T22:22:11.477Z,98149
2018-03-15T22:24:40.365Z,98149
2018-03-15T22:27:09.193Z,98150
2018-03-15T22:29:37.232Z,98146
2018-03-15T22:32:05.288Z,98149
2018-03-15T22:34:33.352Z,98151
2018-03-15T22:37:01.397Z,98149
2018-03-15T22:39:30.224Z,98154
2018-03-15T22:41:59.028Z,98158
2018-03-15T22:44:27.084Z,98157
2018-03-15T22:46:55.140Z,98156
2018-03-15T22:49:23.182Z,98157
2018-03-15T22:51:51.241Z,98157
2018-03-15T22:54:19.361Z,98156
2018-03-15T22:56:47.425Z,98161
2018-03-15T22:59:16.229Z,98160
2018-03-15T23:01:45.070Z,98159
2018-03-15T23:04:13.125Z,98159
2018-03-15T23:06:41.215Z,98163
2018-03-15T23:09:09.273Z,98166
2018-03-15T23:11:38.080Z,98164
2018-03-15T23:14:06.906Z,98167
2018-03-15T23:16:34.945Z,98168
2018-03-15T23:19:02.984Z,98160
2018-03-15T23:21:31.072Z,98166
2018-03-15T23:23:59.120Z,98158
2018-03-15T23:26:27.937Z,98169
2018-03-15T23:28:56.765Z,98161
2018-03-15T23:31:24.800Z,98169
2018-03-15T23:33:53.600Z,98164
2018-03-15T23:36:21.676Z,98170
2018-03-15T23:38:50.477Z,98167
2018-03-15T23:41:19.289Z,98173
2018-03-15T23:43:47.349Z,98176
2018-03-15T23:46:15.393Z,98176
2018-03-15T23:48:43.441Z,98175
2018-03-15T23:51:11.504Z,98177
2018-03-15T23:53:39.543Z,98177
2018-03-15T23:56:07.597Z,98185
2018-03-15T23:58:36.417Z,98192
